createdAt,value
2022-09-27T00:01:02.124Z,19.30
2022-09-27T00:03:47.791Z,19.80
2022-09-27T00:06:36.512Z,20.10
2022-09-27T00:09:25.387Z,20.30
2022-09-27T00:12:10.856Z,20.40
2022-09-27T00:14:59.547Z,20.50
2022-09-27T00:17:45.381Z,20.20
2022-09-27T00:20:31.662Z,19.80
2022-09-27T00:23:19.576Z,19.30
2022-09-27T00:26:08.559Z,19.10
2022-09-27T00:28:54.565Z,19.00
2022-09-27T00:31:41.273Z,18.70
2022-09-27T00:34:27.672Z,18.70
2022-09-27T00:37:13.568Z,18.80
2022-09-27T00:39:59.115Z,18.60
2022-09-27T00:42:44.803Z,18.30
2022-09-27T00:45:30.374Z,18.20
2022-09-27T00:48:20.566Z,18.10
2022-09-27T00:51:09.678Z,18.60
2022-09-27T00:53:57.234Z,19.00
2022-09-27T00:56:43.562Z,19.30
2022-09-27T00:59:39.583Z,19.00
2022-09-27T01:02:25.457Z,18.80
2022-09-27T01:05:14.463Z,18.80
2022-09-27T01:08:01.558Z,18.50
2022-09-27T01:11:19.502Z,18.70
2022-09-27T01:14:26.440Z,18.90
2022-09-27T01:17:31.315Z,19.10
2022-09-27T01:20:48.819Z,19.20
2022-09-27T01:23:46.798Z,19.20
2022-09-27T01:26:55.183Z,19.20
2022-09-27T01:29:50.389Z,19.20
2022-09-27T01:33:00.080Z,18.70
2022-09-27T01:36:21.874Z,18.90
2022-09-27T01:39:37.103Z,19.00
2022-09-27T01:42:56.796Z,18.90
2022-09-27T01:45:53.372Z,18.50
2022-09-27T01:49:00.702Z,18.00
2022-09-27T01:51:55.058Z,17.70
2022-09-27T01:54:47.408Z,17.50
2022-09-27T01:58:17.434Z,17.90
2022-09-27T02:01:07.359Z,17.90
2022-09-27T02:03:55.081Z,18.00
2022-09-27T02:07:05.063Z,18.50
2022-09-27T02:09:59.186Z,18.70
2022-09-27T02:13:16.473Z,18.80
2022-09-27T02:16:31.112Z,18.90
2022-09-27T02:19:42.237Z,18.90
2022-09-27T02:22:50.659Z,18.80
2022-09-27T02:25:55.007Z,18.70
2022-09-27T02:28:56.198Z,18.90
2022-09-27T02:31:48.076Z,19.00
2022-09-27T02:34:36.191Z,18.30
2022-09-27T02:37:22.164Z,18.00
2022-09-27T02:40:08.344Z,18.00
2022-09-27T02:42:55.778Z,18.50
2022-09-27T02:46:15.491Z,18.60
2022-09-27T02:49:19.473Z,18.50
2022-09-27T02:52:39.171Z,18.40
2022-09-27T02:55:47.319Z,18.40
2022-09-27T02:59:19.179Z,18.30
2022-09-27T03:02:48.863Z,18.10
2022-09-27T03:06:05.377Z,17.30
2022-09-27T03:08:51.933Z,16.90
2022-09-27T03:11:37.453Z,17.10
2022-09-27T03:14:23.904Z,17.30
2022-09-27T03:17:32.517Z,17.50
2022-09-27T03:20:37.905Z,17.00
2022-09-27T03:23:27.675Z,17.20
2022-09-27T03:26:13.774Z,17.30
2022-09-27T03:29:00.756Z,17.40
2022-09-27T03:31:47.584Z,16.80
2022-09-27T03:34:50.953Z,16.70
2022-09-27T03:37:37.884Z,16.90
2022-09-27T03:40:24.754Z,16.50
2022-09-27T03:43:10.265Z,16.10
2022-09-27T03:45:56.433Z,16.30
2022-09-27T03:48:42.690Z,16.60
2022-09-27T03:51:29.511Z,16.90
2022-09-27T03:54:15.285Z,16.60
2022-09-27T03:57:00.800Z,16.70
2022-09-27T03:59:47.344Z,16.50
2022-09-27T04:03:05.459Z,16.50
2022-09-27T04:06:18.092Z,16.40
2022-09-27T04:09:03.992Z,16.60
2022-09-27T04:12:07.698Z,16.90
2022-09-27T04:14:55.207Z,17.30
2022-09-27T04:18:04.558Z,17.40
2022-09-27T04:20:53.265Z,17.50
2022-09-27T04:23:38.803Z,17.40
2022-09-27T04:26:27.677Z,17.50
2022-09-27T04:29:28.671Z,17.40
2022-09-27T04:32:18.894Z,16.90
2022-09-27T04:35:43.483Z,16.90
2022-09-27T04:38:29.723Z,17.00
2022-09-27T04:41:15.482Z,17.30
2022-09-27T04:44:02.787Z,17.10
2022-09-27T04:46:48.476Z,17.00
2022-09-27T04:49:34.971Z,17.30
2022-09-27T04:52:20.650Z,17.00
2022-09-27T04:55:07.969Z,17.30
2022-09-27T04:57:54.179Z,17.20
2022-09-27T05:00:39.440Z,17.10
2022-09-27T05:03:45.131Z,17.30
2022-09-27T05:06:32.686Z,17.30
2022-09-27T05:09:25.106Z,17.20
2022-09-27T05:12:15.337Z,17.10
2022-09-27T05:15:18.482Z,17.20
2022-09-27T05:18:24.169Z,17.00
2022-09-27T05:21:36.102Z,17.00
2022-09-27T05:24:25.664Z,16.80
2022-09-27T05:27:19.047Z,16.70
2022-09-27T05:30:09.867Z,16.70
2022-09-27T05:33:07.281Z,16.70
2022-09-27T05:36:19.065Z,16.90
2022-09-27T05:39:05.359Z,16.90
2022-09-27T05:44:47.056Z,17.00
2022-09-27T05:47:33.650Z,17.10
2022-09-27T05:50:19.319Z,17.30
2022-09-27T05:53:05.411Z,17.00
2022-09-27T05:55:51.655Z,17.00
2022-09-27T05:58:41.335Z,17.00
2022-09-27T06:01:38.615Z,16.70
2022-09-27T06:04:45.804Z,17.00
2022-09-27T06:07:52.346Z,16.90
2022-09-27T06:10:49.397Z,17.10
2022-09-27T06:13:42.332Z,17.10
2022-09-27T06:16:30.368Z,17.20
2022-09-27T06:19:16.778Z,17.30
2022-09-27T06:22:02.447Z,17.10
2022-09-27T06:24:57.531Z,17.00
2022-09-27T06:27:47.183Z,17.30
2022-09-27T06:30:43.822Z,17.20
2022-09-27T06:33:49.091Z,17.00
2022-09-27T06:36:35.152Z,17.30
2022-09-27T06:39:21.046Z,17.60
2022-09-27T06:42:27.747Z,17.70
2022-09-27T06:45:24.022Z,17.70
2022-09-27T06:48:29.232Z,17.80
2022-09-27T06:51:28.974Z,18.00
2022-09-27T06:54:14.623Z,17.80
2022-09-27T06:57:02.821Z,17.80
2022-09-27T07:00:08.898Z,17.90
2022-09-27T07:03:14.291Z,18.00
2022-09-27T07:06:23.763Z,18.10
2022-09-27T07:09:16.808Z,18.10
2022-09-27T07:12:02.613Z,18.20
2022-09-27T07:14:52.311Z,18.00
2022-09-27T07:17:37.765Z,18.00
2022-09-27T07:20:23.918Z,18.00
2022-09-27T07:23:12.490Z,17.80
2022-09-27T07:26:04.281Z,17.80
2022-09-27T07:28:50.397Z,18.20
2022-09-27T07:31:37.636Z,18.60
2022-09-27T07:34:24.404Z,19.00
2022-09-27T07:37:10.947Z,19.20
2022-09-27T07:40:00.285Z,19.30
2022-09-27T07:42:46.795Z,20.00
2022-09-27T07:45:32.944Z,20.70
2022-09-27T07:48:32.463Z,22.10
2022-09-27T07:51:24.211Z,22.70
2022-09-27T07:54:16.483Z,22.80
2022-09-27T07:57:28.309Z,23.50
2022-09-27T08:00:21.938Z,23.30
2022-09-27T08:03:15.963Z,23.70
2022-09-27T08:06:04.291Z,24.40
2022-09-27T08:08:51.094Z,25.30
2022-09-27T08:11:38.129Z,25.00
2022-09-27T08:14:24.944Z,24.30
2022-09-27T08:17:11.784Z,25.20
2022-09-27T08:20:19.318Z,26.10
2022-09-27T08:23:16.469Z,27.60
2022-09-27T08:26:03.483Z,28.50
2022-09-27T08:29:12.739Z,28.70
2022-09-27T08:32:03.477Z,28.40
2022-09-27T08:34:49.394Z,28.70
2022-09-27T08:37:35.529Z,29.10
2022-09-27T08:40:24.478Z,29.30
2022-09-27T08:43:22.637Z,28.80
2022-09-27T08:46:25.346Z,29.50
2022-09-27T08:49:48.082Z,29.00
2022-09-27T08:52:43.551Z,27.90
2022-09-27T08:55:38.841Z,26.70
2022-09-27T08:58:43.787Z,27.10
2022-09-27T09:01:41.710Z,27.80
2022-09-27T09:04:51.341Z,28.60
2022-09-27T09:08:06.866Z,28.00
2022-09-27T09:11:28.552Z,27.90
2022-09-27T09:14:33.716Z,28.10
2022-09-27T09:17:48.812Z,27.80
2022-09-27T09:20:55.046Z,28.00
2022-09-27T09:23:52.827Z,28.70
2022-09-27T09:27:08.435Z,29.00
2022-09-27T09:30:18.568Z,29.50
2022-09-27T09:33:27.494Z,28.90
2022-09-27T09:36:41.826Z,28.90
2022-09-27T09:39:35.978Z,28.80
2022-09-27T09:42:30.752Z,27.30
2022-09-27T09:45:30.709Z,27.30
2022-09-27T09:48:32.663Z,28.50
2022-09-27T09:51:23.594Z,29.80
2022-09-27T09:54:27.178Z,30.60
2022-09-27T09:57:28.556Z,31.00
2022-09-27T10:00:17.899Z,32.70
2022-09-27T10:03:06.235Z,31.60
2022-09-27T10:05:52.447Z,32.00
2022-09-27T10:08:39.278Z,29.90
2022-09-27T10:11:47.403Z,29.10
2022-09-27T10:14:42.795Z,29.50
2022-09-27T10:17:37.207Z,30.40
2022-09-27T10:20:34.299Z,31.40
2022-09-27T10:23:25.338Z,32.20
2022-09-27T10:26:31.759Z,32.60
2022-09-27T10:29:37.599Z,33.40
2022-09-27T10:32:38.809Z,31.90
2022-09-27T10:35:46.232Z,32.20
2022-09-27T10:38:39.958Z,32.80
2022-09-27T10:41:36.734Z,31.10
2022-09-27T10:44:42.855Z,30.30
2022-09-27T10:47:39.548Z,28.40
2022-09-27T10:50:59.092Z,29.10
2022-09-27T10:54:55.891Z,31.00
2022-09-27T10:57:48.638Z,32.70
2022-09-27T11:00:38.171Z,31.90
2022-09-27T11:03:26.371Z,29.10
2022-09-27T11:06:23.743Z,25.80
2022-09-27T11:09:27.272Z,26.00
2022-09-27T11:12:16.201Z,25.60
2022-09-27T11:15:07.549Z,25.50
2022-09-27T11:18:26.703Z,25.30
2022-09-27T11:21:51.543Z,24.60
2022-09-27T11:25:00.781Z,24.10
2022-09-27T11:28:40.192Z,23.70
2022-09-27T11:31:37.757Z,24.20
2022-09-27T11:35:03.293Z,24.10
2022-09-27T11:38:29.545Z,24.10
2022-09-27T11:41:59.484Z,24.00
2022-09-27T11:48:39.742Z,24.70
2022-09-27T11:51:44.380Z,24.70
2022-09-27T11:54:58.194Z,24.60
2022-09-27T11:58:14.852Z,24.50
2022-09-27T12:01:25.436Z,24.50
2022-09-27T12:04:45.227Z,24.70
2022-09-27T12:07:47.583Z,24.80
2022-09-27T12:10:40.012Z,24.60
2022-09-27T12:13:39.038Z,24.70
2022-09-27T12:16:27.758Z,24.80
2022-09-27T12:19:24.812Z,24.90
2022-09-27T12:22:57.217Z,24.70
2022-09-27T12:25:42.741Z,25.10
2022-09-27T12:28:55.300Z,24.80
2022-09-27T12:31:52.906Z,24.90
2022-09-27T12:34:40.518Z,24.80
2022-09-27T12:37:34.880Z,24.50
2022-09-27T12:40:35.153Z,24.60
2022-09-27T12:43:28.859Z,25.00
2022-09-27T12:46:54.972Z,25.10
2022-09-27T12:50:15.033Z,24.80
2022-09-27T12:53:15.283Z,25.00
2022-09-27T12:56:25.938Z,24.70
2022-09-27T12:59:50.570Z,24.70
2022-09-27T13:03:16.269Z,24.70
2022-09-27T13:06:48.642Z,24.90
2022-09-27T13:09:48.849Z,24.80
2022-09-27T13:12:35.541Z,24.90
2022-09-27T13:15:36.301Z,24.90
2022-09-27T13:18:36.362Z,24.90
2022-09-27T13:21:51.338Z,25.20
2022-09-27T13:25:01.153Z,25.50
2022-09-27T13:28:32.978Z,25.80
2022-09-27T13:31:55.132Z,25.00
2022-09-27T13:34:53.312Z,25.10
2022-09-27T13:37:55.365Z,25.40
2022-09-27T13:40:47.886Z,25.40
2022-09-27T13:44:23.807Z,25.20
2022-09-27T13:47:27.587Z,25.30
2022-09-27T13:50:30.048Z,25.50
2022-09-27T13:53:31.702Z,25.90
2022-09-27T13:56:46.715Z,26.20
2022-09-27T13:59:52.341Z,26.30
2022-09-27T14:03:15.774Z,26.10
2022-09-27T14:06:08.770Z,26.20
2022-09-27T14:09:15.135Z,26.00
2022-09-27T14:12:15.844Z,26.10
2022-09-27T14:15:04.183Z,26.30
2022-09-27T14:17:51.935Z,26.50
2022-09-27T14:20:42.065Z,26.30
2022-09-27T14:23:39.323Z,26.10
2022-09-27T14:26:27.927Z,26.20
2022-09-27T14:29:22.343Z,25.40
2022-09-27T14:32:14.281Z,25.00
2022-09-27T14:35:36.082Z,24.80
2022-09-27T14:38:38.916Z,25.00
2022-09-27T14:41:40.792Z,25.60
2022-09-27T14:44:28.453Z,26.00
2022-09-27T14:47:25.382Z,26.20
2022-09-27T14:50:25.161Z,25.80
2022-09-27T14:53:23.864Z,24.90
2022-09-27T14:56:22.829Z,24.90
2022-09-27T14:59:13.768Z,25.00
2022-09-27T15:02:03.275Z,25.00
2022-09-27T15:04:51.334Z,25.00
2022-09-27T15:07:37.169Z,24.80
2022-09-27T15:10:28.001Z,24.70
2022-09-27T15:13:17.539Z,24.50
2022-09-27T15:16:10.150Z,24.50
2022-09-27T15:19:07.103Z,24.60
2022-09-27T15:21:57.382Z,24.60
2022-09-27T15:24:47.079Z,24.50
2022-09-27T15:27:33.010Z,24.40
2022-09-27T15:30:29.519Z,24.50
2022-09-27T15:33:21.412Z,24.50
2022-09-27T15:36:09.504Z,24.60
2022-09-27T15:39:08.697Z,24.40
2022-09-27T15:42:17.519Z,24.40
2022-09-27T15:45:23.378Z,24.30
2022-09-27T15:48:16.231Z,24.10
2022-09-27T15:51:03.159Z,23.90
2022-09-27T15:53:50.224Z,23.80
2022-09-27T15:56:38.260Z,23.80
2022-09-27T15:59:27.095Z,23.90
2022-09-27T16:02:19.597Z,23.70
2022-09-27T16:05:06.167Z,23.60
2022-09-27T16:07:53.603Z,23.50
2022-09-27T16:10:47.210Z,23.60
2022-09-27T16:13:33.534Z,23.70
2022-09-27T16:16:21.800Z,23.90
2022-09-27T16:19:08.142Z,23.50
2022-09-27T16:21:54.639Z,23.40
2022-09-27T16:24:42.467Z,23.30
2022-09-27T16:27:28.142Z,23.40
2022-09-27T16:30:15.053Z,23.20
2022-09-27T16:33:00.999Z,23.20
2022-09-27T16:35:46.828Z,23.10
2022-09-27T16:38:32.756Z,23.20
2022-09-27T16:41:20.263Z,23.00
2022-09-27T16:44:17.484Z,23.20
2022-09-27T16:47:04.390Z,23.10
2022-09-27T16:50:08.506Z,23.10
2022-09-27T16:52:56.120Z,23.10
2022-09-27T16:55:43.038Z,23.00
2022-09-27T16:58:29.808Z,22.80
2022-09-27T17:01:19.801Z,22.80
2022-09-27T17:04:05.639Z,22.60
2022-09-27T17:06:52.074Z,21.70
2022-09-27T17:09:37.504Z,22.30
2022-09-27T17:12:23.114Z,22.40
2022-09-27T17:15:08.894Z,22.40
2022-09-27T17:17:54.626Z,22.30
2022-09-27T17:20:40.400Z,22.40
2022-09-27T17:23:27.309Z,22.40
2022-09-27T17:26:33.102Z,22.10
2022-09-27T17:29:18.714Z,22.00
2022-09-27T17:32:08.462Z,21.70
2022-09-27T17:34:54.329Z,21.80
2022-09-27T17:37:40.122Z,21.80
2022-09-27T17:40:25.760Z,21.70
2022-09-27T17:43:11.060Z,21.80
2022-09-27T17:45:57.068Z,21.70
2022-09-27T17:49:01.069Z,21.80
2022-09-27T17:51:48.633Z,21.70
2022-09-27T17:54:35.108Z,21.50
2022-09-27T17:57:21.040Z,21.60
2022-09-27T18:00:07.798Z,22.20
2022-09-27T18:02:58.515Z,21.50
2022-09-27T18:05:45.291Z,21.60
2022-09-27T18:08:33.394Z,21.50
2022-09-27T18:11:29.750Z,21.50
2022-09-27T18:14:17.331Z,21.50
2022-09-27T18:17:04.510Z,21.20
2022-09-27T18:19:53.011Z,21.40
2022-09-27T18:22:40.621Z,21.40
2022-09-27T18:25:27.614Z,21.10
2022-09-27T18:28:13.252Z,21.20
2022-09-27T18:31:11.900Z,21.10
2022-09-27T18:33:59.974Z,21.30
2022-09-27T18:36:47.711Z,21.20
2022-09-27T18:39:36.221Z,21.40
2022-09-27T18:42:22.683Z,21.20
2022-09-27T18:45:09.031Z,21.10
2022-09-27T18:47:55.891Z,20.80
2022-09-27T18:50:43.654Z,20.80
2022-09-27T18:53:31.244Z,20.90
2022-09-27T18:56:20.206Z,20.90
2022-09-27T18:59:11.990Z,20.70
2022-09-27T19:02:03.484Z,20.70
2022-09-27T19:04:51.571Z,20.50
2022-09-27T19:07:39.067Z,20.50
2022-09-27T19:10:25.634Z,20.60
2022-09-27T19:13:12.355Z,20.60
2022-09-27T19:15:59.279Z,20.50
2022-09-27T19:18:45.635Z,20.50
2022-09-27T19:21:35.077Z,20.30
2022-09-27T19:24:21.987Z,20.30
2022-09-27T19:27:09.310Z,20.20
2022-09-27T19:30:00.876Z,20.20
2022-09-27T19:32:49.838Z,20.00
2022-09-27T19:35:36.981Z,20.10
2022-09-27T19:38:24.955Z,20.10
2022-09-27T19:41:14.745Z,20.20
2022-09-27T19:44:01.788Z,20.00
2022-09-27T19:46:49.112Z,19.90
2022-09-27T19:49:36.794Z,19.90
2022-09-27T19:52:26.761Z,19.90
2022-09-27T19:55:13.002Z,19.90
2022-09-27T19:58:00.635Z,19.80
2022-09-27T20:00:47.739Z,19.80
2022-09-27T20:03:36.014Z,19.90
2022-09-27T20:06:23.781Z,20.00
2022-09-27T20:09:11.640Z,20.00
2022-09-27T20:12:01.035Z,20.00
2022-09-27T20:14:52.424Z,20.00
2022-09-27T20:17:38.971Z,20.00
2022-09-27T20:20:25.079Z,19.90
2022-09-27T20:23:11.079Z,19.90
2022-09-27T20:26:05.975Z,19.80
2022-09-27T20:28:57.104Z,19.70
2022-09-27T20:31:57.001Z,19.80
2022-09-27T20:34:54.127Z,19.80
2022-09-27T20:37:41.891Z,20.00
2022-09-27T20:40:29.250Z,19.90
2022-09-27T20:43:15.890Z,19.80
2022-09-27T20:46:04.339Z,19.90
2022-09-27T20:49:04.366Z,20.00
2022-09-27T20:51:52.429Z,20.00
2022-09-27T20:54:38.541Z,20.00
2022-09-27T20:57:46.254Z,20.10
2022-09-27T21:00:31.227Z,20.00
2022-09-27T21:03:21.555Z,20.10
2022-09-27T21:06:07.796Z,20.00
2022-09-27T21:08:54.484Z,19.80
2022-09-27T21:11:40.535Z,19.70
2022-09-27T21:14:26.137Z,19.80
2022-09-27T21:17:11.968Z,19.50
2022-09-27T21:19:58.900Z,19.50
2022-09-27T21:22:47.783Z,19.50
2022-09-27T21:25:33.095Z,19.40
2022-09-27T21:28:20.665Z,19.30
2022-09-27T21:31:21.626Z,19.40
2022-09-27T21:34:11.571Z,19.10
2022-09-27T21:36:57.817Z,19.40
2022-09-27T21:39:43.383Z,19.60
2022-09-27T21:42:28.747Z,19.60
2022-09-27T21:45:14.483Z,19.50
2022-09-27T21:48:02.775Z,19.40
2022-09-27T21:50:49.465Z,19.40
2022-09-27T21:53:38.273Z,19.20
2022-09-27T21:56:30.912Z,19.20
2022-09-27T21:59:18.201Z,19.20
2022-09-27T22:02:04.123Z,19.20
2022-09-27T22:04:50.734Z,19.20
2022-09-27T22:07:36.585Z,19.10
2022-09-27T22:10:22.046Z,19.10
2022-09-27T22:13:08.327Z,19.00
2022-09-27T22:15:54.654Z,19.10
2022-09-27T22:18:43.998Z,19.10
2022-09-27T22:21:32.604Z,19.10
2022-09-27T22:24:18.934Z,18.90
2022-09-27T22:27:04.358Z,19.00
2022-09-27T22:29:49.942Z,19.00
2022-09-27T22:32:35.461Z,18.90
2022-09-27T22:35:21.816Z,18.80
2022-09-27T22:38:07.493Z,18.80
2022-09-27T22:41:01.265Z,18.60
2022-09-27T22:43:47.667Z,18.60
2022-09-27T22:46:33.884Z,18.60
2022-09-27T22:49:19.614Z,18.60
2022-09-27T22:52:05.234Z,18.70
2022-09-27T22:54:50.854Z,18.70
2022-09-27T22:57:36.638Z,18.80
2022-09-27T23:00:22.096Z,18.70
2022-09-27T23:03:07.777Z,18.60
2022-09-27T23:05:53.204Z,18.40
2022-09-27T23:08:41.100Z,18.30
2022-09-27T23:11:29.845Z,18.20
2022-09-27T23:14:15.836Z,18.00
2022-09-27T23:17:01.573Z,18.10
2022-09-27T23:19:47.392Z,18.00
2022-09-27T23:22:33.626Z,17.80
2022-09-27T23:25:21.386Z,18.10
2022-09-27T23:28:07.341Z,18.10
2022-09-27T23:30:52.816Z,18.30
2022-09-27T23:33:40.438Z,18.40
2022-09-27T23:36:27.580Z,18.40
2022-09-27T23:39:12.832Z,18.30
2022-09-27T23:41:58.387Z,18.40
2022-09-27T23:44:43.749Z,18.60
2022-09-27T23:47:29.529Z,18.80
2022-09-27T23:50:15.464Z,18.90
2022-09-27T23:53:01.426Z,18.80
2022-09-27T23:55:48.592Z,18.20
2022-09-27T23:58:39.965Z,17.60
